Powell River, British Columbia

2:09 PM PDT on August 27, 2015 (GMT -0700)
Comox | | Change Station
CLOSE
Current Station
Airport
Location: Comox,
Elevation: 85 ft
Nearby Weather Stations

Elev 85 ft 49.71 °N, 124.89 °W | Updated 9 minutes ago

Mostly Cloudy
Mostly Cloudy
70 °F
Feels Like 70 °F
N
9
Wind Variable Wind from East

Today is forecast to be nearly the same temperature as yesterday.

Today
High -- | Low -- °F
--% Chance of Precip.
Yesterday
High -- | Low -- °F
Precip. -- in
6:25 AM 8:12 PM
Waxing Gibbous, 95% visible
Pressure 30.04 in
Visibility 20.0 miles
Clouds Scattered Clouds 15000 ft
Mostly Cloudy 25000 ft
Dew Point 54 °F
Humidity 56%
Rainfall 0.00 in
Snow Depth Not available.
UV 4 out of 12
Pollen Not available.
Air Quality Not available.
Flu Activity Not available.
METAR CYQQ 272100Z 10008KT 20SM SCT150 BKN250 21/12 A3003 RMK AC4CI1 CB TOP DIST E SLP171
Pressure 30.04 in
Visibility 20.0 miles
Clouds Scattered Clouds 15000 ft
Mostly Cloudy 25000 ft
Dew Point 54 °F
Humidity 56%
Rainfall 0.00 in
Snow Depth Not available.
UV 4 out of 12
Pollen Not available.
Air Quality Not available.
Flu Activity Not available.
METAR CYQQ 272100Z 10008KT 20SM SCT150 BKN250 21/12 A3003 RMK AC4CI1 CB TOP DIST E SLP171

10-Day Weather Forecast

×

Almanac

Astronomy

Aug. 27, 2015 Rise Set
Actual Time
Civil Twilight
Nautical Twilight
Astronomical Twilight
Moon
Length of Visible Light
Length of Day
Tomorrow will be .
, % of the Moon is Illuminated

Today's Extremes

Country Highs Country Lows

Community

WunderPhotos

Upload Photos

1,850,217 photos uploaded!

WunderBlogs® & News

Nearby

Air Quality

  Air Quality AQ Index Pollutant
Not available.

Snow Depth

Station Depth Elevation

Earthquake Activity

City Distance Mag. Time & Date
Minimum magnitude displayed is 2.5.

Coastal Water Temperatures

Place Temperature

Stations

Nearby Weather Stations

Station Location Temp. Windchill Dew Point Humidity Wind Precip. Elev Updated Type